createdAt,value
2019-06-27T00:00:43.312Z,9.23
2019-06-27T00:03:13.754Z,15.80
2019-06-27T00:05:44.681Z,13.93
2019-06-27T00:08:15.215Z,12.23
2019-06-27T00:10:45.908Z,11.23
2019-06-27T00:13:16.369Z,9.47
2019-06-27T00:15:46.883Z,10.07
2019-06-27T00:18:17.382Z,10.70
2019-06-27T00:20:47.941Z,11.60
2019-06-27T00:23:18.492Z,14.50
2019-06-27T00:25:49.110Z,9.90
2019-06-27T00:28:20.655Z,9.67
2019-06-27T00:30:51.299Z,10.67
2019-06-27T00:33:22.025Z,11.10
2019-06-27T00:35:53.604Z,9.00
2019-06-27T00:38:24.166Z,9.23
2019-06-27T00:40:54.842Z,11.33
2019-06-27T00:43:25.341Z,10.00
2019-06-27T00:45:56.906Z,13.90
2019-06-27T00:48:27.790Z,11.07
2019-06-27T00:50:58.144Z,11.33
2019-06-27T00:53:28.921Z,9.43
2019-06-27T00:55:59.345Z,12.43
2019-06-27T00:58:30.064Z,10.37
2019-06-27T01:01:00.501Z,9.50
2019-06-27T01:03:30.927Z,9.70
2019-06-27T01:06:01.321Z,10.63
2019-06-27T01:08:32.098Z,10.07
2019-06-27T01:11:02.704Z,16.07
2019-06-27T01:13:33.270Z,15.77
2019-06-27T01:16:03.883Z,12.20
2019-06-27T01:18:34.547Z,10.20
2019-06-27T01:21:05.099Z,11.17
2019-06-27T01:23:35.578Z,9.83
2019-06-27T01:26:06.247Z,12.93
2019-06-27T01:28:36.816Z,9.47
2019-06-27T01:31:07.255Z,9.93
2019-06-27T01:33:37.949Z,10.90
2019-06-27T01:36:08.408Z,10.43
2019-06-27T01:38:38.986Z,12.23
2019-06-27T01:41:09.502Z,11.00
2019-06-27T01:43:40.005Z,12.80
2019-06-27T01:46:10.456Z,14.70
2019-06-27T01:48:41.063Z,10.70
2019-06-27T01:51:11.471Z,11.10
2019-06-27T01:53:42.381Z,12.53
2019-06-27T01:56:12.773Z,11.63
2019-06-27T01:58:43.603Z,14.47
2019-06-27T02:01:14.208Z,12.37
2019-06-27T02:03:44.954Z,10.50
2019-06-27T02:06:15.354Z,10.80
2019-06-27T02:08:45.867Z,12.07
2019-06-27T02:11:16.517Z,10.50
2019-06-27T02:13:46.893Z,11.20
2019-06-27T02:16:17.484Z,11.10
2019-06-27T02:18:48.335Z,11.90
2019-06-27T02:21:18.826Z,10.60
2019-06-27T02:23:50.042Z,10.67
2019-06-27T02:26:20.695Z,10.97
2019-06-27T02:28:51.175Z,12.93
2019-06-27T02:31:21.603Z,12.77
2019-06-27T02:33:52.421Z,10.47
2019-06-27T02:36:22.892Z,11.00
2019-06-27T02:38:53.513Z,11.83
2019-06-27T02:41:24.513Z,10.57
2019-06-27T02:43:55.216Z,10.73
2019-06-27T02:46:25.817Z,13.90
2019-06-27T02:48:56.727Z,10.47
2019-06-27T02:51:27.392Z,10.30
2019-06-27T02:53:57.848Z,10.87
2019-06-27T02:56:28.558Z,12.07
2019-06-27T02:58:59.229Z,12.67
2019-06-27T03:01:29.642Z,11.90
2019-06-27T03:04:00.286Z,13.60
2019-06-27T03:06:30.846Z,11.40
2019-06-27T03:09:01.238Z,10.93
2019-06-27T03:11:33.014Z,12.23
2019-06-27T03:14:03.407Z,14.90
2019-06-27T03:16:33.881Z,12.60
2019-06-27T03:19:04.589Z,14.27
2019-06-27T03:21:35.003Z,14.73
2019-06-27T03:24:05.458Z,15.57
2019-06-27T03:26:36.203Z,13.50
2019-06-27T03:29:06.713Z,15.63
2019-06-27T03:31:37.130Z,14.10
2019-06-27T03:34:07.755Z,14.07
2019-06-27T03:36:38.163Z,12.20
2019-06-27T03:39:08.742Z,17.67
2019-06-27T03:41:39.281Z,12.23
2019-06-27T03:44:09.788Z,18.57
2019-06-27T03:46:40.645Z,18.00
2019-06-27T03:49:11.099Z,14.07
2019-06-27T03:51:41.617Z,17.13
2019-06-27T03:54:12.363Z,17.93
2019-06-27T03:56:43.510Z,10.37
2019-06-27T03:59:14.169Z,10.43
2019-06-27T04:01:45.015Z,19.07
2019-06-27T04:04:15.692Z,21.80
2019-06-27T04:06:46.317Z,20.20
2019-06-27T04:09:16.873Z,20.33
2019-06-27T04:11:47.492Z,13.13
2019-06-27T04:14:18.239Z,18.77
2019-06-27T04:16:49.695Z,11.73
2019-06-27T04:19:21.427Z,12.87
2019-06-27T04:21:51.879Z,15.83
2019-06-27T04:24:22.519Z,14.33
2019-06-27T04:26:53.191Z,20.70
2019-06-27T04:29:33.523Z,30.70
2019-06-27T04:31:56.130Z,19.93
2019-06-27T04:34:26.520Z,28.57
2019-06-27T04:36:57.268Z,27.43
2019-06-27T04:39:27.813Z,26.10
2019-06-27T04:41:58.275Z,17.30
2019-06-27T04:44:28.980Z,11.83
2019-06-27T04:46:59.503Z,20.47
2019-06-27T04:49:30.263Z,28.37
2019-06-27T04:52:00.693Z,14.23
2019-06-27T04:54:31.492Z,17.43
2019-06-27T04:57:01.913Z,13.83
2019-06-27T04:59:48.137Z,20.87
2019-06-27T05:02:04.620Z,9.07
2019-06-27T05:04:35.320Z,13.87
2019-06-27T05:07:06.541Z,27.83
2019-06-27T05:09:37.377Z,20.63
2019-06-27T05:12:08.191Z,28.10
2019-06-27T05:14:39.162Z,33.13
2019-06-27T05:17:09.758Z,15.57
2019-06-27T05:19:40.285Z,59.53
2019-06-27T05:22:10.793Z,80.03
2019-06-27T05:24:41.721Z,41.07
2019-06-27T05:27:12.407Z,23.53
2019-06-27T05:29:43.115Z,29.57
2019-06-27T05:32:13.536Z,51.83
2019-06-27T05:34:44.129Z,35.23
2019-06-27T05:37:14.643Z,34.60
2019-06-27T05:39:45.150Z,18.10
2019-06-27T05:42:15.575Z,23.23
2019-06-27T05:44:46.153Z,42.63
2019-06-27T05:47:16.628Z,30.90
2019-06-27T05:49:47.100Z,33.30
2019-06-27T05:52:17.884Z,14.63
2019-06-27T05:54:48.339Z,12.17
2019-06-27T05:57:18.975Z,11.83
2019-06-27T05:59:49.426Z,20.20
2019-06-27T06:02:20.276Z,21.63
2019-06-27T06:04:50.735Z,14.00
2019-06-27T06:07:21.207Z,14.83
2019-06-27T06:09:51.621Z,13.23
2019-06-27T06:12:22.474Z,11.17
2019-06-27T06:14:52.918Z,12.53
2019-06-27T06:17:23.758Z,14.97
2019-06-27T06:19:54.754Z,11.23
2019-06-27T06:22:25.180Z,45.60
2019-06-27T06:24:58.185Z,37.40
2019-06-27T06:27:27.767Z,30.33
2019-06-27T06:29:58.507Z,43.03
2019-06-27T06:32:29.135Z,31.67
2019-06-27T06:34:59.967Z,28.73
2019-06-27T06:37:31.103Z,13.60
2019-06-27T06:40:01.676Z,15.47
2019-06-27T06:42:32.565Z,11.10
2019-06-27T06:45:03.011Z,31.27
2019-06-27T06:47:33.545Z,8.20
2019-06-27T06:50:04.197Z,9.03
2019-06-27T06:52:34.769Z,9.77
2019-06-27T06:55:05.631Z,14.37
2019-06-27T06:57:36.252Z,8.13
2019-06-27T07:00:09.023Z,15.00
2019-06-27T07:02:39.791Z,7.97
2019-06-27T07:05:10.453Z,18.50
2019-06-27T07:07:41.259Z,19.20
2019-06-27T07:10:12.343Z,26.80
2019-06-27T07:12:42.887Z,9.37
2019-06-27T07:15:13.791Z,11.20
2019-06-27T07:17:44.286Z,11.23
2019-06-27T07:20:15.323Z,17.20
2019-06-27T07:22:45.809Z,20.30
2019-06-27T07:25:16.630Z,16.43
2019-06-27T07:27:47.157Z,15.47
2019-06-27T07:30:17.792Z,16.73
2019-06-27T07:32:48.330Z,16.37
2019-06-27T07:35:18.967Z,10.83
2019-06-27T07:37:50.039Z,9.53
2019-06-27T07:40:21.171Z,8.40
2019-06-27T07:42:51.767Z,12.57
2019-06-27T07:45:22.411Z,16.23
2019-06-27T07:47:53.191Z,13.50
2019-06-27T07:50:23.925Z,12.63
2019-06-27T07:52:54.488Z,20.50
2019-06-27T07:55:25.364Z,17.23
2019-06-27T07:57:55.818Z,19.20
2019-06-27T08:00:27.120Z,15.03
2019-06-27T08:02:57.966Z,7.60
2019-06-27T08:05:28.443Z,14.93
2019-06-27T08:07:59.008Z,12.53
2019-06-27T08:10:29.770Z,15.80
2019-06-27T08:13:00.407Z,19.53
2019-06-27T08:15:31.062Z,13.17
2019-06-27T08:18:01.614Z,15.87
2019-06-27T08:20:32.294Z,8.03
2019-06-27T08:23:02.917Z,11.03
2019-06-27T08:25:33.414Z,6.93
2019-06-27T08:28:04.002Z,7.30
2019-06-27T08:30:34.529Z,13.87
2019-06-27T08:33:04.973Z,10.77
2019-06-27T08:35:35.658Z,17.67
2019-06-27T08:38:06.083Z,15.37
2019-06-27T08:40:36.798Z,9.40
2019-06-27T08:43:07.350Z,10.20
2019-06-27T08:45:37.931Z,14.47
2019-06-27T08:48:08.513Z,21.30
2019-06-27T08:50:39.015Z,15.30
2019-06-27T08:53:09.471Z,15.40
2019-06-27T08:55:40.063Z,12.03
2019-06-27T08:58:10.503Z,14.77
2019-06-27T09:00:41.177Z,9.83
2019-06-27T09:03:11.757Z,19.73
2019-06-27T09:05:42.231Z,30.17
2019-06-27T09:08:13.005Z,8.33
2019-06-27T09:10:43.403Z,10.10
2019-06-27T09:13:14.211Z,14.17
2019-06-27T09:15:44.759Z,27.00
2019-06-27T09:18:15.363Z,9.30
2019-06-27T09:20:45.985Z,14.93
2019-06-27T09:23:16.542Z,12.10
2019-06-27T09:25:46.990Z,9.13
2019-06-27T09:28:17.827Z,8.33
2019-06-27T09:30:48.273Z,8.53
2019-06-27T09:33:18.885Z,22.23
2019-06-27T09:35:49.612Z,5.10
2019-06-27T09:38:20.304Z,14.17
2019-06-27T09:40:50.732Z,19.60
2019-06-27T09:43:21.306Z,6.40
2019-06-27T09:45:51.923Z,13.43
2019-06-27T09:48:22.358Z,32.83
2019-06-27T09:50:53.170Z,24.47
2019-06-27T09:53:23.554Z,12.97
2019-06-27T09:55:54.018Z,8.50
2019-06-27T09:58:24.664Z,20.80
2019-06-27T10:00:55.174Z,16.83
2019-06-27T10:03:38.952Z,9.17
2019-06-27T10:06:09.390Z,9.57
2019-06-27T10:08:40.184Z,13.13
2019-06-27T10:11:10.649Z,48.07
2019-06-27T10:13:41.261Z,27.63
2019-06-27T10:16:11.867Z,20.63
2019-06-27T10:18:42.343Z,25.07
2019-06-27T10:21:13.305Z,8.23
2019-06-27T10:23:43.775Z,17.57
2019-06-27T10:26:14.515Z,28.43
2019-06-27T10:28:44.984Z,14.80
2019-06-27T10:31:15.833Z,12.20
2019-06-27T10:33:46.295Z,15.33
2019-06-27T10:36:17.217Z,11.17
2019-06-27T10:38:47.597Z,11.83
2019-06-27T10:41:19.377Z,19.93
2019-06-27T10:43:49.918Z,20.43
2019-06-27T10:46:20.569Z,15.77
2019-06-27T10:48:51.963Z,22.87
2019-06-27T10:51:22.491Z,16.23
2019-06-27T10:53:52.961Z,11.17
2019-06-27T10:56:23.611Z,5.03
2019-06-27T10:58:54.180Z,10.67
2019-06-27T11:01:24.761Z,15.50
2019-06-27T11:03:55.259Z,11.07
2019-06-27T11:06:26.752Z,13.07
2019-06-27T11:08:57.461Z,12.37
2019-06-27T11:11:27.894Z,24.83
2019-06-27T11:13:59.550Z,17.23
2019-06-27T11:16:30.191Z,12.23
2019-06-27T11:19:00.748Z,11.53
2019-06-27T11:21:31.445Z,15.40
2019-06-27T11:24:01.882Z,12.47
2019-06-27T11:26:32.364Z,12.17
2019-06-27T11:29:02.985Z,19.87
2019-06-27T11:31:33.630Z,13.17
2019-06-27T11:34:04.260Z,11.67
2019-06-27T11:36:34.695Z,30.33
2019-06-27T11:39:07.453Z,23.57
2019-06-27T11:41:37.880Z,14.30
2019-06-27T11:44:08.490Z,14.23
2019-06-27T11:46:39.233Z,13.47
2019-06-27T11:49:09.956Z,19.10
2019-06-27T11:51:40.571Z,43.47
2019-06-27T11:54:11.048Z,13.43
2019-06-27T11:56:41.512Z,38.57
2019-06-27T11:59:12.206Z,33.50
2019-06-27T12:01:43.796Z,44.63
2019-06-27T12:04:14.415Z,28.83
2019-06-27T12:06:45.111Z,63.23
2019-06-27T12:09:15.840Z,13.00
2019-06-27T12:11:46.482Z,15.23
2019-06-27T12:14:17.308Z,22.23
2019-06-27T12:16:47.816Z,21.13
2019-06-27T12:19:18.319Z,40.70
2019-06-27T12:21:48.806Z,54.37
2019-06-27T12:24:19.483Z,20.10
2019-06-27T12:26:50.289Z,106.67
2019-06-27T12:29:20.686Z,19.30
2019-06-27T12:31:51.851Z,24.83
2019-06-27T12:34:22.747Z,15.40
2019-06-27T12:36:53.189Z,38.87
2019-06-27T12:39:23.652Z,11.73
2019-06-27T12:41:54.290Z,17.37
2019-06-27T12:44:24.728Z,7.23
2019-06-27T12:46:55.488Z,13.93
2019-06-27T12:49:44.506Z,5.83
2019-06-27T12:51:58.099Z,9.13
2019-06-27T12:54:28.509Z,27.77
2019-06-27T12:56:59.043Z,16.77
2019-06-27T12:59:29.507Z,16.47
2019-06-27T13:02:01.359Z,21.63
2019-06-27T13:04:31.850Z,13.53
2019-06-27T13:07:02.547Z,11.85
2019-06-27T13:09:33.108Z,14.35
2019-06-27T13:12:03.758Z,25.92
2019-06-27T13:14:34.517Z,23.25
2019-06-27T13:17:05.098Z,42.90
2019-06-27T13:19:39.464Z,12.37
2019-06-27T13:22:08.058Z,14.38
2019-06-27T13:24:38.497Z,25.77
2019-06-27T13:27:08.937Z,25.45
2019-06-27T13:29:39.792Z,32.08
2019-06-27T13:32:10.846Z,28.98
2019-06-27T13:34:41.438Z,18.85
2019-06-27T13:37:12.034Z,23.73
2019-06-27T13:39:42.486Z,21.70
2019-06-27T13:42:13.132Z,9.55
2019-06-27T13:44:43.900Z,6.25
2019-06-27T13:47:14.409Z,20.37
2019-06-27T13:49:45.468Z,14.17
2019-06-27T13:52:16.236Z,13.35
2019-06-27T13:54:46.713Z,14.38
2019-06-27T13:57:17.249Z,38.45
2019-06-27T13:59:48.047Z,19.55
2019-06-27T14:02:18.880Z,21.12
2019-06-27T14:04:56.914Z,12.75
2019-06-27T14:07:21.653Z,8.43
2019-06-27T14:09:56.897Z,27.80
2019-06-27T14:12:24.894Z,22.07
2019-06-27T14:15:00.157Z,18.20
2019-06-27T14:17:28.375Z,15.35
2019-06-27T14:19:59.152Z,19.70
2019-06-27T14:22:34.084Z,41.70
2019-06-27T14:25:02.078Z,35.03
2019-06-27T14:27:32.805Z,15.00
2019-06-27T14:30:03.720Z,22.87
2019-06-27T14:32:34.420Z,10.72
2019-06-27T14:35:15.371Z,16.62
2019-06-27T14:37:37.592Z,12.15
2019-06-27T14:40:08.660Z,15.38
2019-06-27T14:42:39.160Z,38.78
2019-06-27T14:45:10.104Z,9.53
2019-06-27T14:47:41.500Z,26.62
2019-06-27T14:50:12.779Z,34.63
2019-06-27T14:52:43.573Z,11.88
2019-06-27T14:55:14.482Z,23.22
2019-06-27T14:57:44.911Z,14.87
2019-06-27T15:00:16.581Z,15.08
2019-06-27T15:02:47.210Z,25.90
2019-06-27T15:05:31.752Z,31.37
2019-06-27T15:07:51.693Z,16.00
2019-06-27T15:10:22.433Z,19.47
2019-06-27T15:12:57.331Z,13.93
2019-06-27T15:15:25.234Z,7.23
2019-06-27T15:17:55.838Z,13.98
2019-06-27T15:20:26.422Z,11.55
2019-06-27T15:22:57.885Z,6.25
2019-06-27T15:25:28.961Z,12.28
2019-06-27T15:27:59.862Z,25.50
2019-06-27T15:30:30.290Z,12.50
2019-06-27T15:33:07.504Z,14.23
2019-06-27T15:35:52.025Z,24.23
2019-06-27T15:38:10.387Z,10.88
2019-06-27T15:40:40.978Z,8.88
2019-06-27T15:43:11.963Z,7.50
2019-06-27T15:45:42.888Z,10.03
2019-06-27T15:48:13.565Z,15.70
2019-06-27T15:50:44.317Z,12.15
2019-06-27T15:53:14.835Z,11.23
2019-06-27T15:55:46.373Z,11.33
2019-06-27T15:58:17.424Z,14.40
2019-06-27T16:00:48.107Z,18.33
2019-06-27T16:03:18.634Z,25.03
2019-06-27T16:05:49.271Z,11.27
2019-06-27T16:08:19.764Z,21.60
2019-06-27T16:10:50.359Z,11.70
2019-06-27T16:13:20.977Z,7.53
2019-06-27T16:15:51.611Z,18.37
2019-06-27T16:18:22.325Z,11.20
2019-06-27T16:20:53.388Z,9.63
2019-06-27T16:23:23.862Z,11.27
2019-06-27T16:25:54.788Z,6.63
2019-06-27T16:28:27.018Z,6.67
2019-06-27T16:30:58.010Z,8.43
2019-06-27T16:33:28.927Z,8.50
2019-06-27T16:36:05.747Z,9.43
2019-06-27T16:38:37.434Z,57.20
2019-06-27T16:41:08.150Z,9.97
2019-06-27T16:43:39.431Z,8.23
2019-06-27T16:46:10.297Z,10.17
2019-06-27T16:48:41.353Z,19.63
2019-06-27T16:51:11.834Z,8.27
2019-06-27T16:53:42.869Z,12.07
2019-06-27T16:56:13.780Z,17.13
2019-06-27T16:58:44.417Z,8.67
2019-06-27T17:01:15.035Z,8.47
2019-06-27T17:03:45.655Z,6.50
2019-06-27T17:06:16.553Z,8.10
2019-06-27T17:08:47.243Z,8.37
2019-06-27T17:11:18.027Z,7.03
2019-06-27T17:13:48.679Z,7.17
2019-06-27T17:16:22.142Z,6.23
2019-06-27T17:18:51.405Z,4.97
2019-06-27T17:21:21.810Z,9.57
2019-06-27T17:23:52.682Z,7.13
2019-06-27T17:26:23.162Z,6.43
2019-06-27T17:28:53.646Z,8.33
2019-06-27T17:31:24.379Z,6.30
2019-06-27T17:33:55.824Z,7.33
2019-06-27T17:36:34.706Z,6.83
2019-06-27T17:39:07.811Z,5.87
2019-06-27T17:41:38.314Z,33.63
2019-06-27T17:44:09.086Z,13.37
2019-06-27T17:46:39.602Z,4.17
2019-06-27T17:49:10.438Z,7.67
2019-06-27T17:51:44.196Z,4.83
2019-06-27T17:54:15.204Z,8.40
2019-06-27T17:56:45.789Z,7.60
2019-06-27T17:59:16.304Z,8.53
2019-06-27T18:01:48.136Z,8.07
2019-06-27T18:04:18.654Z,4.80
2019-06-27T18:06:49.639Z,9.60
2019-06-27T18:09:20.406Z,10.20
2019-06-27T18:11:51.179Z,4.40
2019-06-27T18:14:21.701Z,3.27
2019-06-27T18:16:52.239Z,7.93
2019-06-27T18:19:22.693Z,7.17
2019-06-27T18:21:53.676Z,4.80
2019-06-27T18:24:24.355Z,8.33
2019-06-27T18:26:54.933Z,6.47
2019-06-27T18:29:25.467Z,7.17
2019-06-27T18:31:56.055Z,2.33
2019-06-27T18:34:26.629Z,5.23
2019-06-27T18:36:58.319Z,12.13
2019-06-27T18:39:28.761Z,7.20
2019-06-27T18:41:59.215Z,8.17
2019-06-27T18:44:29.971Z,6.13
2019-06-27T18:47:01.275Z,9.10
2019-06-27T18:49:31.786Z,5.07
2019-06-27T18:52:02.585Z,4.57
2019-06-27T18:54:33.055Z,3.47
2019-06-27T18:57:03.834Z,1.70
2019-06-27T18:59:35.387Z,3.20
2019-06-27T19:02:05.873Z,4.53
2019-06-27T19:04:36.644Z,4.43
2019-06-27T19:07:07.142Z,3.80
2019-06-27T19:09:37.682Z,5.63
2019-06-27T19:12:08.328Z,4.30
2019-06-27T19:14:38.844Z,4.63
2019-06-27T19:17:09.547Z,3.33
2019-06-27T19:19:41.978Z,7.53
2019-06-27T19:22:31.424Z,4.60
2019-06-27T19:25:20.020Z,2.07
2019-06-27T19:27:50.503Z,4.77
2019-06-27T19:30:20.960Z,3.10
2019-06-27T19:32:51.489Z,5.87
2019-06-27T19:35:22.042Z,2.77
2019-06-27T19:38:02.273Z,2.67
2019-06-27T19:40:24.530Z,2.87
2019-06-27T19:42:55.250Z,4.23
2019-06-27T19:45:25.765Z,4.37
2019-06-27T19:47:56.322Z,5.40
2019-06-27T19:50:26.920Z,3.63
2019-06-27T19:52:57.904Z,8.00
2019-06-27T19:55:28.551Z,5.13
2019-06-27T19:57:58.965Z,5.17
2019-06-27T20:00:29.946Z,5.73
2019-06-27T20:03:00.396Z,4.33
2019-06-27T20:05:31.049Z,6.47
2019-06-27T20:08:17.408Z,4.67
2019-06-27T20:10:33.633Z,6.17
2019-06-27T20:13:04.163Z,3.93
2019-06-27T20:15:34.749Z,5.90
2019-06-27T20:18:05.411Z,5.03
2019-06-27T20:20:36.180Z,7.03
2019-06-27T20:23:06.703Z,8.97
2019-06-27T20:25:37.461Z,6.50
2019-06-27T20:28:07.999Z,4.67
2019-06-27T20:30:38.685Z,6.50
2019-06-27T20:33:09.261Z,5.97
2019-06-27T20:35:40.348Z,7.93
2019-06-27T20:38:10.975Z,7.63
2019-06-27T20:40:41.993Z,4.47
2019-06-27T20:43:12.706Z,5.60
2019-06-27T20:45:43.151Z,9.43
2019-06-27T20:48:13.651Z,5.00
2019-06-27T20:50:44.389Z,3.97
2019-06-27T20:53:14.882Z,4.20
2019-06-27T20:55:45.401Z,4.23
2019-06-27T20:58:15.990Z,3.87
2019-06-27T21:00:46.550Z,5.23
2019-06-27T21:03:17.379Z,5.17
2019-06-27T21:05:48.507Z,5.13
2019-06-27T21:08:18.953Z,4.67
2019-06-27T21:10:49.422Z,4.33
2019-06-27T21:13:20.072Z,6.17
2019-06-27T21:15:50.693Z,4.30
2019-06-27T21:18:21.528Z,4.87
2019-06-27T21:20:51.954Z,2.83
2019-06-27T21:23:22.456Z,5.63
2019-06-27T21:25:53.163Z,3.23
2019-06-27T21:28:23.876Z,4.10
2019-06-27T21:30:54.468Z,4.97
2019-06-27T21:33:24.862Z,6.70
2019-06-27T21:35:55.642Z,3.90
2019-06-27T21:38:26.062Z,7.87
2019-06-27T21:40:56.831Z,5.20
2019-06-27T21:43:27.342Z,5.67
2019-06-27T21:45:57.807Z,4.50
2019-06-27T21:48:28.387Z,4.43
2019-06-27T21:50:58.787Z,4.87
2019-06-27T21:53:29.525Z,5.07
2019-06-27T21:56:00.157Z,4.40
2019-06-27T21:58:30.656Z,6.27
2019-06-27T22:01:02.016Z,4.20
2019-06-27T22:03:32.736Z,6.27
2019-06-27T22:06:03.385Z,7.13
2019-06-27T22:08:33.988Z,6.17
2019-06-27T22:11:04.418Z,4.90
2019-06-27T22:13:35.262Z,7.93
2019-06-27T22:16:05.916Z,5.20
2019-06-27T22:18:36.459Z,5.93
2019-06-27T22:21:07.199Z,7.50
2019-06-27T22:23:38.269Z,7.93
2019-06-27T22:26:08.689Z,7.23
2019-06-27T22:28:39.123Z,7.40
2019-06-27T22:31:09.911Z,6.27
2019-06-27T22:33:40.327Z,7.90
2019-06-27T22:36:12.207Z,9.87
2019-06-27T22:39:00.479Z,7.50
2019-06-27T22:41:50.550Z,9.33
2019-06-27T22:44:38.789Z,9.30
2019-06-27T22:47:27.170Z,12.63
2019-06-27T22:49:56.632Z,10.13
2019-06-27T22:53:01.837Z,9.10
2019-06-27T22:55:32.788Z,17.03
2019-06-27T22:58:03.344Z,14.10
2019-06-27T23:00:34.117Z,10.93
2019-06-27T23:03:04.518Z,10.87
2019-06-27T23:05:35.260Z,11.97
2019-06-27T23:08:11.936Z,26.27
2019-06-27T23:10:42.702Z,62.23
2019-06-27T23:13:14.249Z,88.33
2019-06-27T23:15:45.141Z,109.20
2019-06-27T23:18:15.572Z,104.77
2019-06-27T23:20:46.214Z,69.20
2019-06-27T23:23:16.797Z,56.63
2019-06-27T23:25:47.575Z,21.30
2019-06-27T23:28:18.277Z,30.87
2019-06-27T23:30:49.047Z,30.87
2019-06-27T23:33:19.708Z,13.63
2019-06-27T23:35:50.369Z,16.57
2019-06-27T23:38:20.816Z,11.77
2019-06-27T23:40:51.303Z,15.87
2019-06-27T23:43:21.933Z,30.00
2019-06-27T23:45:52.459Z,23.80
2019-06-27T23:48:22.901Z,16.50
2019-06-27T23:50:53.643Z,14.13
2019-06-27T23:53:24.059Z,18.53
2019-06-27T23:55:54.747Z,16.60
2019-06-27T23:58:25.189Z,12.00
